HADR/DIR METAR and TAF weather

Enter ICAO airport designator
Station Type Date Time Source
HADR METAR 2022/06/22 07:00 UTC NOAA

HADR 220700Z 04010KT 9999 BKN025 18/10 Q1021 NOSIG


Station Type Date Time Source
HADR Decoded METAR 2022/06/22 07:00 UTC NOAA

Dire Dawa, Ethiopia (HADR) 09-36N 041-52E 1146M
Jun 22, 2022 - 03:00 AM EDT / 2022.06.22 0700 UTC
Wind: from the NE (040 degrees) at 12 MPH (10 KT):0
Visibility: greater than 7 mile(s):0
Sky conditions: mostly cloudy
Temperature: 64 F (18 C)
Dew Point: 50 F (10 C)
Relative Humidity: 59%
Pressure (altimeter): 30.15 in. Hg (1021 hPa)
ob: HADR 220700Z 04010KT 9999 BKN025 18/10 Q1021 NOSIG
cycle: 7

Station Type Date Time Source
HADR TAF 2022/07/03 12:48 UTC NOAA

TAF HADR 030930Z 0312/0418 18004KT 9999 FEW020 SCT075
BECMG 0320/0406 18006KT 8000 BR/ -RA SCT020 BKN075

Example: see airport list